Latest Weather Observations for Warwick

IDQ60901

Issued at 8:31 am EST Friday 30 January 2015 (issued every 10 minutes, with the page automatically refreshed every 10 minutes)

About weather observations | Map of Brisbane area stations | Latest observations for Brisbane area | Other Formats
Station Details ID: 041525 Name: WARWICK Lat: -28.21 Lon: 152.10 Height: 475.4 m
Data from the previous 72 hours. | See also: Recent months at Warwick
Date/Time
EST
Tmp

°C
App
Tmp
°C
Dew
Point
°C
Rel
Hum
%
Delta-T

°C
Wind Press
QNH
hPa
Press
MSL
hPa
Rain
since
9 am
mm
Dir
 
Spd
km/h
Gust
km/h
Spd
kts
Gust
kts
30/08:30am 20.4 21.2 15.8 75 2.8 SW 6 9 3 5 1011.2 1008.5 0.0
30/08:00am 19.9 21.4 15.8 77 2.5 S 2 7 1 4 1011.2 1008.5 0.0
30/07:30am 18.6 20.4 15.4 81 1.9 CALM 0 0 0 0 1011.2 1008.5 0.0
30/07:00am 17.5 19.2 15.2 86 1.4 CALM 0 0 0 0 1011.2 1008.5 0.0
30/06:30am 17.3 19.0 15.1 87 1.3 CALM 0 0 0 0 1010.9 1008.2 0.0
30/06:00am 16.0 17.6 15.0 94 0.6 CALM 0 0 0 0 1010.7 1008.0 0.0
30/05:30am 15.0 16.3 14.1 94 0.5 CALM 0 0 0 0 1010.3 1007.6 0.0
30/05:00am 15.6 17.1 14.6 94 0.6 CALM 0 0 0 0 1010.2 1007.5 0.0
30/04:30am 16.5 17.6 14.6 88 1.1 N 2 7 1 4 1010.0 1007.3 0.0
30/04:00am 16.7 18.3 14.8 88 1.1 CALM 0 0 0 0 1010.0 1007.3 0.0
30/03:30am 16.7 18.4 15.2 91 0.9 CALM 0 0 0 0 1010.0 1007.3 0.0
30/03:00am 17.4 19.2 15.4 88 1.2 CALM 0 0 0 0 1010.0 1007.3 0.0
30/02:30am 18.0 19.1 15.5 85 1.5 SSE 4 9 2 5 1010.2 1007.5 0.0
30/02:00am 18.4 18.5 15.4 83 1.8 SSE 9 15 5 8 1010.4 1007.8 0.0
30/01:30am 18.2 18.8 15.7 85 1.5 SSE 7 11 4 6 1010.8 1008.1 0.0
30/01:00am 18.7 18.9 15.7 83 1.8 SSE 9 13 5 7 1010.9 1008.2 0.0
30/12:30am 18.9 19.1 15.8 82 1.9 SE 9 17 5 9 1011.0 1008.3 0.0
30/12:00am 19.0 19.3 16.0 83 1.8 SSE 9 13 5 7 1011.1 1008.4 0.0
 
Date/Time
EST
Tmp

°C
App
Tmp
°C
Dew
Point
°C
Rel
Hum
%
Delta-T

°C
Wind Press
QNH
hPa
Press
MSL
hPa
Rain
since
9 am
mm
Dir
 
Spd
km/h
Gust
km/h
Spd
kts
Gust
kts
29/11:30pm 19.0 19.3 15.9 82 1.9 SE 9 15 5 8 1011.2 1008.5 0.0
29/11:00pm 18.9 19.2 15.9 83 1.8 SE 9 17 5 9 1011.4 1008.7 0.0
29/10:30pm 18.5 18.8 16.0 85 1.5 SE 9 15 5 8 1011.6 1008.9 0.0
29/10:00pm 18.5 18.3 15.7 84 1.7 SSE 11 19 6 10 1011.5 1008.8 0.0
29/09:30pm 19.0 19.2 15.7 81 2.0 SSE 9 19 5 10 1011.3 1008.6 0.0
29/09:00pm 19.7 19.7 16.3 81 2.1 SSE 11 17 6 9 1010.9 1008.2 0.0
29/08:30pm 19.4 21.0 17.0 86 1.5 SSW 4 9 2 5 1010.2 1007.5 0.0
29/08:00pm 20.5 21.7 16.8 79 2.3 S 6 13 3 7 1009.9 1007.2 0.0
29/07:30pm 21.5 20.9 13.5 60 4.7 WSW 9 15 5 8 1009.6 1006.9 0.0
29/07:00pm 22.1 22.3 14.6 62 4.5 WSW 7 9 4 5 1009.2 1006.5 0.0
29/06:30pm 24.2 22.2 11.6 45 7.3 WSW 13 17 7 9 1008.8 1006.1 0.0
29/06:00pm 26.0 23.9 11.1 39 8.6 WSW 13 19 7 10 1008.2 1005.5 0.0
29/05:30pm 27.1 24.9 10.9 36 9.4 WSW 13 22 7 12 1007.8 1005.1 0.0
29/05:00pm 26.0 27.0 14.4 48 7.1 SW 2 7 1 4 1007.6 1004.9 0.0
29/04:30pm 26.2 26.6 14.8 49 7.0 ENE 6 9 3 5 1007.5 1004.8 0.0
29/04:00pm 25.6 25.6 14.2 49 6.9 E 7 11 4 6 1007.5 1004.8 0.0
29/03:30pm 25.1 26.1 14.4 51 6.5 NNE 2 7 1 4 1007.7 1005.0 0.0
29/03:00pm 25.3 25.3 13.7 48 7.0 SE 6 9 3 5 1007.9 1005.2 0.0
29/02:30pm 24.9 24.9 14.2 51 6.5 ENE 7 11 4 6 1008.1 1005.4 0.0
29/02:00pm 25.4 25.3 14.0 49 6.9 ENE 7 15 4 8 1008.5 1005.7 0.0
29/01:30pm 25.3 25.4 14.5 51 6.6 S 7 13 4 7 1008.6 1005.9 0.0
29/01:00pm 24.5 24.0 13.8 51 6.4 SSW 9 19 5 10 1009.0 1006.3 0.0
29/12:30pm 24.3 23.8 13.8 52 6.3 SW 9 17 5 9 1009.4 1006.7 0.0
29/12:00pm 23.6 23.1 13.7 53 5.9 SSE 9 24 5 13 1009.7 1007.0 0.0
29/11:30am 23.0 22.2 13.0 53 5.9 S 9 13 5 7 1010.1 1007.4 0.0
29/11:00am 22.6 21.9 13.1 55 5.6 SE 9 17 5 9 1010.4 1007.8 0.0
29/10:30am 23.0 21.7 13.8 56 5.5 SSE 13 22 7 12 1010.8 1008.1 0.0
29/10:00am 22.1 20.7 13.3 57 5.2 SE 13 22 7 12 1010.9 1008.2 0.0
29/09:30am 21.6 18.9 12.9 57 5.1 SSE 19 28 10 15 1011.0 1008.3 0.0
29/09:00am 21.3 18.5 12.7 58 5.0 SSE 19 28 10 15 1011.2 1008.5 0.6
29/08:30am 20.3 17.1 11.9 58 4.8 SSE 20 32 11 17 1011.0 1008.3 0.6
29/08:00am 19.7 17.0 11.8 60 4.5 SSE 17 26 9 14 1010.9 1008.2 0.6
29/07:30am 19.1 17.6 11.9 63 4.1 SSE 11 19 6 10 1010.8 1008.1 0.6
29/07:00am 17.9 16.7 11.7 67 3.5 SE 9 15 5 8 1010.7 1008.0 0.6
29/06:30am 16.5 16.4 10.8 69 3.1 ESE 2 7 1 4 1010.3 1007.6 0.6
29/06:00am 14.5 14.8 10.8 78 2.0 CALM 0 0 0 0 1010.1 1007.4 0.6
29/05:30am 13.8 13.7 10.8 82 1.6 SSE 2 9 1 5 1009.8 1007.1 0.6
29/05:00am 14.3 14.6 10.8 79 1.9 CALM 0 6 0 3 1009.5 1006.8 0.6
29/04:30am 14.6 14.5 10.9 78 2.0 ESE 2 9 1 5 1009.3 1006.6 0.6
29/04:00am 14.7 14.0 11.4 80 1.8 ESE 6 9 3 5 1009.1 1006.4 0.6
29/03:30am 14.6 13.8 11.7 83 1.6 SE 7 11 4 6 1009.2 1006.5 0.6
29/03:00am 14.9 14.3 11.6 80 1.8 SE 6 13 3 7 1008.9 1006.2 0.6
29/02:30am 14.9 15.0 12.6 86 1.3 ESE 4 13 2 7 1008.8 1006.1 0.6
29/02:00am 15.2 14.8 13.1 87 1.2 SE 7 11 4 6 1009.1 1006.4 0.6
29/01:30am 15.9 15.1 12.9 82 1.7 SE 9 15 5 8 1009.3 1006.6 0.6
29/01:00am 16.3 15.5 13.0 81 1.9 SSE 9 19 5 10 1009.6 1006.9 0.6
29/12:30am 16.3 15.6 13.3 82 1.7 SE 9 15 5 8 1010.0 1007.3 0.6
29/12:00am 16.5 16.3 13.7 83 1.6 SE 7 13 4 7 1010.3 1007.6 0.6
 
Date/Time
EST
Tmp

°C
App
Tmp
°C
Dew
Point
°C
Rel
Hum
%
Delta-T

°C
Wind Press
QNH
hPa
Press
MSL
hPa
Rain
since
9 am
mm
Dir
 
Spd
km/h
Gust
km/h
Spd
kts
Gust
kts
28/11:30pm 16.7 15.9 13.9 83 1.6 SE 11 17 6 9 1010.4 1007.8 0.6
28/11:00pm 16.7 16.9 14.3 86 1.4 SE 6 11 3 6 1010.6 1007.9 0.6
28/10:30pm 16.2 16.8 14.3 88 1.1 ESE 4 9 2 5 1010.2 1007.5 0.6
28/10:00pm 16.6 16.8 14.7 88 1.1 SSE 7 13 4 7 1010.1 1007.4 0.6
28/09:30pm 17.1 17.1 15.1 88 1.2 SE 9 17 5 9 1010.4 1007.8 0.6
28/09:00pm 17.1 17.1 15.1 88 1.2 SE 9 15 5 8 1010.6 1007.9 0.6
28/08:30pm 17.2 16.7 14.8 86 1.4 SE 11 17 6 9 1010.2 1007.5 0.6
28/08:00pm 17.3 17.2 14.9 86 1.4 SE 9 13 5 7 1009.9 1007.2 0.6
28/07:30pm 17.4 16.8 14.7 84 1.6 SE 11 15 6 8 1009.8 1007.1 0.6
28/07:00pm 17.6 17.6 15.3 86 1.4 SE 9 17 5 9 1009.7 1007.0 0.6
28/06:30pm 18.2 17.5 15.4 84 1.7 SE 13 30 7 16 1009.4 1006.7 0.6
28/06:00pm 18.5 16.6 15.3 81 1.9 SE 19 33 10 18 1009.2 1006.5 0.6
28/05:30pm 19.4 17.8 16.1 81 2.0 SE 19 32 10 17 1008.6 1005.9 0.6
28/05:00pm 20.1 19.4 16.4 79 2.3 SE 15 22 8 12 1008.0 1005.3 0.6
28/04:30pm 20.3 20.0 16.4 78 2.4 SE 13 22 7 12 1008.1 1005.4 0.6
28/04:00pm 20.0 18.7 15.9 77 2.5 SE 17 24 9 13 1008.1 1005.4 0.6
28/03:30pm 20.2 18.8 15.6 75 2.8 SE 17 28 9 15 1008.2 1005.5 0.6
28/03:00pm 20.4 19.4 16.5 78 2.4 SE 17 26 9 14 1008.4 1005.6 0.6
28/02:30pm 19.7 18.2 16.4 81 2.0 SE 19 26 10 14 1008.5 1005.7 0.6
28/02:00pm 19.3 18.6 16.5 84 1.7 SE 15 22 8 12 1008.6 1005.9 0.6
28/01:30pm 19.1 17.9 16.2 83 1.8 SE 17 26 9 14 1008.7 1006.0 0.6
28/01:00pm 19.1 18.7 16.3 84 1.7 SE 13 24 7 13 1008.9 1006.2 0.6
28/12:30pm 18.6 18.4 16.6 88 1.2 SE 13 22 7 12 1009.2 1006.5 0.6
28/12:00pm 18.0 17.7 16.5 91 0.9 SE 13 20 7 11 1009.3 1006.6 0.4
28/11:30am 18.4 17.9 15.8 85 1.6 SE 13 24 7 13 1009.4 1006.7 0.0
28/11:00am 18.1 17.0 15.3 84 1.7 SSE 15 24 8 13 1009.6 1006.9 0.0
28/10:30am 18.3 17.3 15.5 84 1.7 SSE 15 24 8 13 1009.6 1006.9 0.0
28/10:00am 18.0 16.1 15.3 84 1.6 SSE 19 32 10 17 1009.4 1006.7 0.0
28/09:30am 18.0 16.5 15.3 84 1.6 SE 17 28 9 15 1009.3 1006.6 0.0
28/09:00am 17.8 16.6 15.1 84 1.6 SE 15 26 8 14 1009.2 1006.5 32.2
28/08:30am 17.2 16.0 15.0 87 1.3 SE 15 22 8 12 1009.2 1006.5 32.0
28/08:00am 16.7 15.2 15.2 91 0.9 SSE 17 28 9 15 1008.9 1006.2 32.0
28/07:30am 16.4 15.2 15.0 91 0.8 SSE 15 24 8 13 1008.6 1005.9 32.0
28/07:00am 15.9 13.6 14.7 93 0.7 SSE 20 33 11 18 1008.1 1005.4 32.0
28/06:30am 15.8 14.5 14.8 94 0.6 SSE 15 24 8 13 1007.9 1005.2 32.0
28/06:00am 15.4 14.1 14.7 96 0.4 SSE 15 22 8 12 1007.4 1004.7 32.0
28/05:30am 15.5 15.4 15.0 97 0.3 SSE 9 19 5 10 1006.9 1004.2 32.0
28/05:00am 15.4 15.8 14.7 96 0.4 ESE 6 13 3 7 1006.5 1003.7 32.0
28/04:30am 15.1 14.5 14.6 97 0.3 SSE 11 17 6 9 1007.0 1004.3 31.4
28/04:00am 15.1 14.9 14.6 97 0.3 SE 9 15 5 8 1007.1 1004.4 30.6
28/03:30am 15.1 13.7 14.4 96 0.4 SSE 15 20 8 11 1007.6 1004.9 30.2
28/03:00am 15.2 13.4 14.5 96 0.4 SSE 17 26 9 14 1007.8 1005.1 29.6
28/02:30am 15.1 13.7 14.4 96 0.4 SE 15 24 8 13 1008.0 1005.3 29.2
28/02:00am 15.4 13.6 14.4 94 0.6 SE 17 26 9 14 1008.6 1005.9 28.4
28/01:30am 15.6 14.8 15.1 97 0.3 SE 13 22 7 12 1008.6 1005.9 28.0
28/01:00am 16.0 15.3 15.3 96 0.4 SE 13 20 7 11 1009.0 1006.3 27.8
28/12:30am 15.8 15.0 15.1 96 0.4 SE 13 20 7 11 1009.4 1006.7 26.8
28/12:00am 16.0 14.4 15.0 94 0.6 SE 17 28 9 15 1009.9 1007.2 24.8
 
Date/Time
EST
Tmp

°C
App
Tmp
°C
Dew
Point
°C
Rel
Hum
%
Delta-T

°C
Wind Press
QNH
hPa
Press
MSL
hPa
Rain
since
9 am
mm
Dir
 
Spd
km/h
Gust
km/h
Spd
kts
Gust
kts
27/11:30pm 16.0 13.9 15.3 96 0.4 SSE 20 43 11 23 1009.9 1007.2 23.0
27/11:00pm 16.8 16.0 16.1 96 0.4 SSE 15 24 8 13 1010.1 1007.4 16.6
27/10:30pm 16.7 14.9 16.0 96 0.4 SSE 20 33 11 18 1009.3 1006.6 15.0
27/10:00pm 17.5 16.2 16.7 95 0.5 SSE 19 37 10 20 1009.5 1006.8 14.0
27/09:30pm 18.3 17.8 17.7 96 0.4 SE 17 28 9 15 1008.6 1005.9 10.8
27/09:00pm 20.3 21.2 19.2 93 0.7 SE 13 20 7 11 1008.5 1005.7 6.6
27/08:30pm 20.7 22.3 19.1 90 1.0 SE 9 19 5 10 1008.4 1005.6 6.2
27/08:00pm 20.9 22.8 19.0 89 1.2 ESE 7 13 4 7 1008.2 1005.5 6.2
27/07:30pm 20.9 22.1 19.0 89 1.2 SSE 11 19 6 10 1007.8 1005.1 6.2
27/07:00pm 20.9 22.3 19.5 92 0.9 SE 11 17 6 9 1007.2 1004.5 6.2
27/06:30pm 21.1 21.8 19.6 91 1.0 SSE 15 22 8 12 1007.2 1004.5 6.0
27/06:00pm 21.0 22.8 19.6 92 0.9 SE 9 15 5 8 1006.7 1004.0 6.0
27/05:30pm 20.9 21.8 20.0 95 0.6 SE 15 24 8 13 1006.2 1003.4 6.0
27/05:00pm 22.1 22.9 20.6 91 1.0 SSE 17 28 9 15 1005.8 1003.1 3.0
27/04:30pm 23.5 24.1 20.2 82 2.2 SE 17 30 9 16 1005.4 1002.7 0.0
27/04:00pm 25.6 24.8 19.2 67 4.2 SSE 22 33 12 18 1005.0 1002.3 0.0
27/03:30pm 26.7 26.4 20.3 68 4.3 SSE 22 35 12 19 1005.5 1002.8 0.0
27/03:00pm 28.1 27.3 16.2 48 7.5 NE 15 22 8 12 1005.6 1002.9 0.0
27/02:30pm 28.7 29.1 16.2 46 7.9 NE 9 17 5 9 1006.3 1003.5 0.0
27/02:00pm 28.2 27.1 16.4 48 7.5 NE 17 28 9 15 1006.8 1004.1 0.0
27/01:30pm 27.6 27.4 16.8 51 6.9 NE 13 24 7 13 1007.3 1004.6 0.0
27/01:00pm 27.7 27.9 16.7 51 7.0 ENE 11 17 6 9 1007.6 1004.9 0.0
27/12:30pm 27.6 27.0 16.7 51 6.9 NE 15 24 8 13 1008.1 1005.4 0.0
27/12:00pm 27.8 27.3 16.0 48 7.4 E 13 19 7 10 1008.7 1006.0 0.0
27/11:30am 27.5 26.2 15.7 48 7.4 ENE 17 28 9 15 1009.1 1006.4 0.0
27/11:00am 26.5 25.5 16.5 54 6.3 ENE 17 24 9 13 1009.4 1006.7 0.0
27/10:30am 26.3 25.2 16.3 54 6.3 ENE 17 24 9 13 1010.0 1007.3 0.0
27/10:00am 26.0 25.3 16.5 55 6.0 ENE 15 22 8 12 1009.8 1007.1 0.0
27/09:30am 25.6 27.1 18.8 66 4.4 ESE 9 15 5 8 1010.0 1007.3 0.0
27/09:00am 25.4 26.1 18.8 67 4.3 SE 13 20 7 11 1009.9 1007.2 1.6

Latest Capital City Observations: Canberra | Sydney | Melbourne | Brisbane | Adelaide | Perth | Hobart | Darwin

Other Formats:

Comma delimited format used in spreadsheet applications
http://www.bom.gov.au/fwo/IDQ60901/IDQ60901.94555.axf

JavaScript Object Notation format (JSON) in row-major order
http://www.bom.gov.au/fwo/IDQ60901/IDQ60901.94555.json